Time,TemperatureF,DewpointF,PressureIn,WindDirection,WindDirectionDegrees,WindSpeedMPH,WindSpeedGustMPH,Humidity,HourlyPrecipIn,Conditions,Clouds,dailyrainin,SoftwareType,DateUTC
2013-05-08 00:00:00,69.7,52.8,29.89,South,177,6.0,7.0,55,0.00,,,0.02,Wunderground v.1.15,2013-05-08 05:00:00,
2013-05-08 00:10:00,70.0,53.1,29.89,South,177,5.0,5.0,55,0.00,,,0.00,Wunderground v.1.15,2013-05-08 05:10:00,
2013-05-08 00:20:00,69.6,52.7,29.89,South,177,1.0,1.0,55,0.00,,,0.00,Wunderground v.1.15,2013-05-08 05:20:00,
2013-05-08 00:30:00,69.3,52.4,29.89,South,178,1.0,1.0,55,0.00,,,0.00,Wunderground v.1.15,2013-05-08 05:30:00,
2013-05-08 00:40:00,69.1,52.2,29.89,South,180,2.0,5.0,55,0.00,,,0.00,Wunderground v.1.15,2013-05-08 05:40:00,
2013-05-08 00:50:00,69.1,52.2,29.89,South,179,3.0,5.0,55,0.00,,,0.00,Wunderground v.1.15,2013-05-08 05:50:00,
2013-05-08 01:00:00,68.8,52.5,29.88,South,178,2.0,2.0,56,0.00,,,0.00,Wunderground v.1.15,2013-05-08 06:00:00,
2013-05-08 01:10:00,69.0,51.7,29.88,South,178,0.0,5.0,54,0.00,,,0.00,Wunderground v.1.15,2013-05-08 06:10:00,
2013-05-08 01:20:00,68.7,52.4,29.88,South,176,2.0,2.0,56,0.00,,,0.00,Wunderground v.1.15,2013-05-08 06:20:00,
2013-05-08 01:30:00,68.3,52.5,29.88,South,176,0.0,5.0,57,0.00,,,0.00,Wunderground v.1.15,2013-05-08 06:30:00,
2013-05-08 01:40:00,67.7,52.9,29.88,South,176,0.0,5.0,59,0.00,,,0.00,Wunderground v.1.15,2013-05-08 06:40:00,
2013-05-08 01:50:00,67.4,52.6,29.88,South,175,1.0,5.0,59,0.00,,,0.00,Wunderground v.1.15,2013-05-08 06:50:00,
2013-05-08 02:00:00,67.5,52.2,29.88,South,175,1.0,1.0,58,0.00,,,0.00,Wunderground v.1.15,2013-05-08 07:00:00,
2013-05-08 02:10:00,67.0,52.2,29.88,South,175,1.0,7.0,59,0.00,,,0.00,Wunderground v.1.15,2013-05-08 07:10:00,
2013-05-08 02:20:00,67.3,52.0,29.88,South,178,3.0,5.0,58,0.00,,,0.00,Wunderground v.1.15,2013-05-08 07:20:00,
2013-05-08 02:30:00,67.8,52.5,29.88,South,176,4.0,4.0,58,0.00,,,0.00,Wunderground v.1.15,2013-05-08 07:30:00,
2013-05-08 02:40:00,68.0,53.1,29.88,South,183,2.0,2.0,59,0.00,,,0.00,Wunderground v.1.15,2013-05-08 07:40:00,
2013-05-08 02:50:00,68.2,53.3,29.89,South,182,2.0,2.0,59,0.00,,,0.00,Wunderground v.1.15,2013-05-08 07:50:00,
2013-05-08 03:00:00,68.1,53.7,29.89,South,182,1.0,1.0,60,0.00,,,0.00,Wunderground v.1.15,2013-05-08 08:00:00,
2013-05-08 03:10:00,67.7,53.8,29.89,South,182,0.0,5.0,61,0.00,,,0.00,Wunderground v.1.15,2013-05-08 08:10:00,
2013-05-08 03:20:00,67.3,53.8,29.89,South,182,0.0,5.0,62,0.00,,,0.00,Wunderground v.1.15,2013-05-08 08:20:00,
2013-05-08 03:30:00,66.8,53.8,29.89,South,182,0.0,5.0,63,0.00,,,0.00,Wunderground v.1.15,2013-05-08 08:30:00,
2013-05-08 03:40:00,66.5,53.9,29.88,South,182,0.0,5.0,64,0.00,,,0.00,Wunderground v.1.15,2013-05-08 08:40:00,
2013-05-08 03:50:00,66.1,54.0,29.88,South,182,0.0,5.0,65,0.00,,,0.00,Wunderground v.1.15,2013-05-08 08:50:00,
2013-05-08 04:00:00,65.7,54.4,29.89,South,182,0.0,5.0,67,0.00,,,0.00,Wunderground v.1.15,2013-05-08 09:00:00,
2013-05-08 04:10:00,65.0,55.0,29.88,South,182,0.0,5.0,70,0.00,,,0.00,Wunderground v.1.15,2013-05-08 09:10:00,
2013-05-08 04:20:00,64.3,55.1,29.87,South,182,0.0,5.0,72,0.00,,,0.00,Wunderground v.1.15,2013-05-08 09:20:00,
2013-05-08 04:30:00,64.1,54.9,29.87,South,182,0.0,5.0,72,0.00,,,0.00,Wunderground v.1.15,2013-05-08 09:30:00,
2013-05-08 04:40:00,64.1,54.9,29.87,South,178,2.0,5.0,72,0.00,,,0.00,Wunderground v.1.15,2013-05-08 09:40:00,
2013-05-08 04:50:00,64.3,55.1,29.87,South,172,4.0,5.0,72,0.00,,,0.00,Wunderground v.1.15,2013-05-08 09:50:00,
2013-05-08 05:00:00,64.3,55.1,29.87,South,169,2.0,2.0,72,0.00,,,0.00,Wunderground v.1.15,2013-05-08 10:00:00,
2013-05-08 05:10:00,64.0,55.2,29.87,South,169,0.0,5.0,73,0.00,,,0.00,Wunderground v.1.15,2013-05-08 10:10:00,
2013-05-08 05:20:00,63.7,54.9,29.87,South,169,0.0,5.0,73,0.00,,,0.00,Wunderground v.1.15,2013-05-08 10:20:00,
2013-05-08 05:30:00,63.2,55.1,29.87,South,169,0.0,5.0,75,0.00,,,0.00,Wunderground v.1.15,2013-05-08 10:30:00,
2013-05-08 05:40:00,63.2,55.1,29.87,South,169,0.0,5.0,75,0.00,,,0.00,Wunderground v.1.15,2013-05-08 10:40:00,
2013-05-08 05:50:00,63.0,55.3,29.87,South,169,0.0,5.0,76,0.00,,,0.00,Wunderground v.1.15,2013-05-08 10:50:00,
2013-05-08 06:00:00,62.7,55.0,29.86,South,169,0.0,5.0,76,0.00,,,0.00,Wunderground v.1.15,2013-05-08 11:00:00,
2013-05-08 06:10:00,62.2,54.9,29.87,South,169,0.0,5.0,77,0.00,,,0.00,Wunderground v.1.15,2013-05-08 11:10:00,
2013-05-08 06:20:00,61.8,55.2,29.87,South,169,0.0,5.0,79,0.00,,,0.00,Wunderground v.1.15,2013-05-08 11:20:00,
2013-05-08 06:30:00,61.6,55.4,29.87,South,169,0.0,5.0,80,0.00,,,0.00,Wunderground v.1.15,2013-05-08 11:30:00,
2013-05-08 06:40:00,61.2,55.7,29.87,South,169,0.0,5.0,82,0.00,,,0.00,Wunderground v.1.15,2013-05-08 11:40:00,
2013-05-08 06:50:00,60.8,55.9,29.88,South,169,0.0,5.0,84,0.00,,,0.00,Wunderground v.1.15,2013-05-08 11:50:00,
2013-05-08 07:00:00,60.9,56.4,29.88,South,169,1.0,5.0,85,0.00,,,0.00,Wunderground v.1.15,2013-05-08 12:00:00,
2013-05-08 07:10:00,61.5,56.6,29.89,SSE,168,5.0,5.0,84,0.00,,,0.00,Wunderground v.1.15,2013-05-08 12:10:00,
2013-05-08 07:20:00,61.9,56.7,29.89,SSE,167,5.0,5.0,83,0.00,,,0.00,Wunderground v.1.15,2013-05-08 12:20:00,
2013-05-08 07:30:00,62.3,57.1,29.89,South,179,5.0,5.0,83,0.00,,,0.00,Wunderground v.1.15,2013-05-08 12:30:00,
2013-05-08 07:40:00,62.8,57.6,29.90,South,169,5.0,8.0,83,0.00,,,0.00,Wunderground v.1.15,2013-05-08 12:40:00,
2013-05-08 07:50:00,63.4,57.8,29.90,South,171,6.0,6.0,82,0.00,,,0.00,Wunderground v.1.15,2013-05-08 12:50:00,
2013-05-08 08:00:00,64.0,58.4,29.90,South,183,6.0,7.0,82,0.00,,,0.00,Wunderground v.1.15,2013-05-08 13:00:00,
2013-05-08 08:10:00,64.6,58.6,29.89,South,178,7.0,9.0,81,0.00,,,0.00,Wunderground v.1.15,2013-05-08 13:10:00,
2013-05-08 08:20:00,65.4,59.4,29.89,South,190,7.0,12.0,81,0.00,,,0.00,Wunderground v.1.15,2013-05-08 13:20:00,
2013-05-08 08:30:00,66.2,59.8,29.89,South,184,10.0,10.0,80,0.00,,,0.00,Wunderground v.1.15,2013-05-08 13:30:00,
2013-05-08 08:40:00,67.1,60.4,29.90,South,185,9.0,9.0,79,0.00,,,0.00,Wunderground v.1.15,2013-05-08 13:40:00,
2013-05-08 08:50:00,67.8,61.0,29.90,South,187,10.0,10.0,79,0.00,,,0.00,Wunderground v.1.15,2013-05-08 13:50:00,
2013-05-08 09:00:00,68.6,61.5,29.90,South,182,10.0,10.0,78,0.00,,,0.00,Wunderground v.1.15,2013-05-08 14:00:00,
2013-05-08 09:10:00,69.3,61.8,29.90,South,177,10.0,13.0,77,0.00,,,0.00,Wunderground v.1.15,2013-05-08 14:10:00,
2013-05-08 09:20:00,70.1,62.6,29.89,SSE,163,10.0,13.0,77,0.00,,,0.00,Wunderground v.1.15,2013-05-08 14:20:00,
2013-05-08 09:30:00,70.7,62.8,29.89,South,184,11.0,12.0,76,0.00,,,0.00,Wunderground v.1.15,2013-05-08 14:30:00,
2013-05-08 09:40:00,71.7,63.0,29.89,South,188,9.0,9.0,74,0.00,,,0.00,Wunderground v.1.15,2013-05-08 14:40:00,
2013-05-08 09:50:00,71.9,63.2,29.89,South,191,10.0,10.0,74,0.00,,,0.00,Wunderground v.1.15,2013-05-08 14:50:00,
2013-05-08 10:00:00,73.1,63.9,29.89,South,178,10.0,13.0,73,0.00,,,0.00,Wunderground v.1.15,2013-05-08 15:00:00,
2013-05-08 10:10:00,73.6,63.6,29.89,SSE,162,12.0,12.0,71,0.00,,,0.00,Wunderground v.1.15,2013-05-08 15:10:00,
2013-05-08 10:20:00,74.0,64.0,29.90,South,186,12.0,12.0,71,0.00,,,0.00,Wunderground v.1.15,2013-05-08 15:20:00,
2013-05-08 10:30:00,75.2,64.7,29.90,South,176,9.0,11.0,70,0.00,,,0.00,Wunderground v.1.15,2013-05-08 15:30:00,
2013-05-08 10:40:00,75.8,64.1,29.90,South,185,11.0,14.0,67,0.00,,,0.00,Wunderground v.1.15,2013-05-08 15:40:00,
2013-05-08 10:50:00,75.4,64.5,29.90,South,180,12.0,12.0,69,0.00,,,0.00,Wunderground v.1.15,2013-05-08 15:50:00,
2013-05-08 11:00:00,76.4,65.1,29.90,South,178,13.0,18.0,68,0.00,,,0.00,Wunderground v.1.15,2013-05-08 16:00:00,
2013-05-08 11:10:00,76.7,64.9,29.90,South,180,12.0,12.0,67,0.00,,,0.00,Wunderground v.1.15,2013-05-08 16:10:00,
2013-05-08 11:20:00,76.8,64.1,29.90,South,180,11.0,11.0,65,0.00,,,0.00,Wunderground v.1.15,2013-05-08 16:20:00,
2013-05-08 11:30:00,77.5,64.8,29.90,SSE,166,10.0,15.0,65,0.00,,,0.00,Wunderground v.1.15,2013-05-08 16:30:00,
2013-05-08 11:40:00,77.3,64.2,29.90,South,171,13.0,14.0,64,0.00,,,0.00,Wunderground v.1.15,2013-05-08 16:40:00,
2013-05-08 11:50:00,77.1,64.4,29.90,SSE,165,14.0,14.0,65,0.00,,,0.00,Wunderground v.1.15,2013-05-08 16:50:00,
2013-05-08 12:00:00,76.1,64.3,29.90,South,173,13.0,13.0,67,0.00,,,0.00,Wunderground v.1.15,2013-05-08 17:00:00,
2013-05-08 12:10:00,74.8,63.5,29.90,SSE,159,11.0,15.0,68,0.00,,,0.00,Wunderground v.1.15,2013-05-08 17:10:00,
2013-05-08 12:20:00,74.5,63.7,29.90,South,180,10.0,13.0,69,0.00,,,0.00,Wunderground v.1.15,2013-05-08 17:20:00,
2013-05-08 12:30:00,74.5,63.2,29.90,South,188,11.0,12.0,68,0.00,,,0.00,Wunderground v.1.15,2013-05-08 17:30:00,
2013-05-08 12:40:00,74.2,63.4,29.90,South,174,9.0,9.0,69,0.00,,,0.00,Wunderground v.1.15,2013-05-08 17:40:00,
2013-05-08 12:50:00,75.2,63.9,29.90,SSE,159,12.0,13.0,68,0.00,,,0.00,Wunderground v.1.15,2013-05-08 17:50:00,
2013-05-08 13:00:00,75.1,63.8,29.90,South,174,10.0,15.0,68,0.00,,,0.00,Wunderground v.1.15,2013-05-08 18:00:00,
2013-05-08 13:10:00,74.2,63.4,29.90,SSW,199,9.0,9.0,69,0.00,,,0.00,Wunderground v.1.15,2013-05-08 18:10:00,
2013-05-08 13:20:00,73.7,63.3,29.90,South,180,8.0,8.0,70,0.00,,,0.00,Wunderground v.1.15,2013-05-08 18:20:00,
2013-05-08 13:30:00,73.9,63.5,29.90,South,183,7.0,7.0,70,0.00,,,0.00,Wunderground v.1.15,2013-05-08 18:30:00,
2013-05-08 13:40:00,74.2,63.8,29.89,South,176,9.0,13.0,70,0.00,,,0.00,Wunderground v.1.15,2013-05-08 18:40:00,
2013-05-08 13:50:00,74.2,63.8,29.89,South,182,9.0,9.0,70,0.00,,,0.00,Wunderground v.1.15,2013-05-08 18:50:00,
2013-05-08 14:00:00,74.0,64.0,29.89,SSE,163,10.0,15.0,71,0.00,,,0.00,Wunderground v.1.15,2013-05-08 19:00:00,
2013-05-08 14:10:00,73.9,63.9,29.89,SSE,162,8.0,8.0,71,0.00,,,0.00,Wunderground v.1.15,2013-05-08 19:10:00,
2013-05-08 14:20:00,73.7,63.7,29.89,South,181,9.0,9.0,71,0.00,,,0.00,Wunderground v.1.15,2013-05-08 19:20:00,
2013-05-08 14:30:00,73.7,63.7,29.89,South,174,7.0,7.0,71,0.00,,,0.00,Wunderground v.1.15,2013-05-08 19:30:00,
2013-05-08 14:40:00,73.8,63.8,29.89,SSE,161,10.0,12.0,71,0.00,,,0.00,Wunderground v.1.15,2013-05-08 19:40:00,
2013-05-08 14:50:00,74.0,63.6,29.89,South,178,9.0,11.0,70,0.00,,,0.00,Wunderground v.1.15,2013-05-08 19:50:00,
2013-05-08 15:00:00,74.2,63.8,29.88,SSW,193,9.0,9.0,70,0.00,,,0.00,Wunderground v.1.15,2013-05-08 20:00:00,
2013-05-08 15:10:00,74.5,64.1,29.88,SSE,165,9.0,9.0,70,0.00,,,0.00,Wunderground v.1.15,2013-05-08 20:10:00,
2013-05-08 15:20:00,74.9,64.5,29.87,South,184,9.0,14.0,70,0.00,,,0.00,Wunderground v.1.15,2013-05-08 20:20:00,
2013-05-08 15:30:00,75.0,64.1,29.87,South,178,12.0,12.0,69,0.00,,,0.00,Wunderground v.1.15,2013-05-08 20:30:00,
2013-05-08 15:40:00,74.3,63.9,29.86,South,179,10.0,10.0,70,0.00,,,0.00,Wunderground v.1.15,2013-05-08 20:40:00,
2013-05-08 15:50:00,74.5,64.1,29.86,South,171,7.0,10.0,70,0.00,,,0.00,Wunderground v.1.15,2013-05-08 20:50:00,
2013-05-08 16:00:00,74.8,64.4,29.86,South,176,8.0,8.0,70,0.00,,,0.00,Wunderground v.1.15,2013-05-08 21:00:00,
2013-05-08 16:10:00,74.7,64.3,29.86,SSE,159,9.0,9.0,70,0.00,,,0.00,Wunderground v.1.15,2013-05-08 21:10:00,
2013-05-08 16:20:00,74.4,64.0,29.86,South,189,9.0,9.0,70,0.00,,,0.00,Wunderground v.1.15,2013-05-08 21:20:00,
2013-05-08 16:30:00,74.8,64.4,29.85,South,176,7.0,9.0,70,0.00,,,0.00,Wunderground v.1.15,2013-05-08 21:30:00,
2013-05-08 16:40:00,74.6,64.2,29.85,SSE,166,9.0,9.0,70,0.00,,,0.00,Wunderground v.1.15,2013-05-08 21:40:00,
2013-05-08 16:50:00,74.5,64.1,29.85,South,180,8.0,14.0,70,0.00,,,0.00,Wunderground v.1.15,2013-05-08 21:50:00,
2013-05-08 17:00:00,74.5,64.1,29.84,South,174,11.0,13.0,70,0.00,,,0.00,Wunderground v.1.15,2013-05-08 22:00:00,
2013-05-08 17:10:00,75.0,64.5,29.84,South,173,9.0,9.0,70,0.00,,,0.00,Wunderground v.1.15,2013-05-08 22:10:00,
2013-05-08 17:20:00,75.7,64.8,29.84,South,169,10.0,10.0,69,0.00,,,0.00,Wunderground v.1.15,2013-05-08 22:20:00,
2013-05-08 17:30:00,75.5,64.6,29.83,South,182,11.0,11.0,69,0.00,,,0.00,Wunderground v.1.15,2013-05-08 22:30:00,
2013-05-08 17:40:00,75.3,64.8,29.83,South,170,11.0,11.0,70,0.00,,,0.00,Wunderground v.1.15,2013-05-08 22:40:00,
2013-05-08 17:50:00,75.5,64.6,29.82,SSE,167,11.0,11.0,69,0.00,,,0.00,Wunderground v.1.15,2013-05-08 22:50:00,
2013-05-08 18:00:00,76.1,65.2,29.81,South,173,11.0,14.0,69,0.00,,,0.00,Wunderground v.1.15,2013-05-08 23:00:00,
2013-05-08 18:10:00,75.8,64.5,29.81,South,174,12.0,13.0,68,0.00,,,0.00,Wunderground v.1.15,2013-05-08 23:10:00,
2013-05-08 18:20:00,75.4,64.5,29.81,South,180,11.0,11.0,69,0.00,,,0.00,Wunderground v.1.15,2013-05-08 23:20:00,
2013-05-08 18:30:00,75.4,64.5,29.80,South,181,10.0,10.0,69,0.00,,,0.00,Wunderground v.1.15,2013-05-08 23:30:00,
2013-05-08 18:40:00,75.3,64.4,29.80,South,180,10.0,13.0,69,0.00,,,0.00,Wunderground v.1.15,2013-05-08 23:40:00,
2013-05-08 18:50:00,75.4,64.5,29.80,South,182,11.0,11.0,69,0.00,,,0.00,Wunderground v.1.15,2013-05-08 23:50:00,
2013-05-08 19:00:00,75.5,64.2,29.80,SSE,159,10.0,13.0,68,0.00,,,0.00,Wunderground v.1.15,2013-05-09 00:00:00,
2013-05-08 19:10:00,75.6,64.3,29.80,South,183,13.0,13.0,68,0.00,,,0.00,Wunderground v.1.15,2013-05-09 00:10:00,
2013-05-08 19:20:00,75.5,64.6,29.80,SSW,198,9.0,11.0,69,0.00,,,0.00,Wunderground v.1.15,2013-05-09 00:20:00,
2013-05-08 19:30:00,75.5,64.2,29.81,SSE,147,10.0,10.0,68,0.00,,,0.00,Wunderground v.1.15,2013-05-09 00:30:00,
2013-05-08 19:40:00,75.0,64.1,29.81,SSE,165,11.0,11.0,69,0.00,,,0.00,Wunderground v.1.15,2013-05-09 00:40:00,
2013-05-08 19:50:00,74.7,64.3,29.81,South,171,9.0,9.0,70,0.00,,,0.00,Wunderground v.1.15,2013-05-09 00:50:00,
2013-05-08 20:00:00,74.3,64.3,29.82,SSE,161,5.0,6.0,71,0.00,,,0.00,Wunderground v.1.15,2013-05-09 01:00:00,
2013-05-08 20:10:00,74.0,64.0,29.82,SSE,161,2.0,6.0,71,0.00,,,0.00,Wunderground v.1.15,2013-05-09 01:10:00,
2013-05-08 20:20:00,73.7,64.1,29.82,SSE,159,1.0,1.0,72,0.00,,,0.00,Wunderground v.1.15,2013-05-09 01:20:00,
2013-05-08 20:30:00,73.2,64.0,29.82,SSW,199,0.0,5.0,73,0.00,,,0.00,Wunderground v.1.15,2013-05-09 01:30:00,
2013-05-08 20:40:00,72.6,63.8,29.83,SSW,198,0.0,5.0,74,0.00,,,0.00,Wunderground v.1.15,2013-05-09 01:40:00,
2013-05-08 20:50:00,71.9,63.5,29.83,SSW,198,0.0,5.0,75,0.00,,,0.00,Wunderground v.1.15,2013-05-09 01:50:00,
2013-05-08 21:00:00,71.5,63.5,29.82,SSW,198,0.0,5.0,76,0.00,,,0.00,Wunderground v.1.15,2013-05-09 02:00:00,
2013-05-08 21:10:00,70.8,63.2,29.82,SSW,198,0.0,5.0,77,0.00,,,0.00,Wunderground v.1.15,2013-05-09 02:10:00,
2013-05-08 21:20:00,70.4,63.2,29.82,SSW,198,0.0,5.0,78,0.00,,,0.00,Wunderground v.1.15,2013-05-09 02:20:00,
2013-05-08 21:30:00,70.2,63.4,29.82,SSW,198,0.0,5.0,79,0.00,,,0.00,Wunderground v.1.15,2013-05-09 02:30:00,
2013-05-08 21:40:00,69.9,63.1,29.82,SSW,198,0.0,5.0,79,0.00,,,0.00,Wunderground v.1.15,2013-05-09 02:40:00,
2013-05-08 21:50:00,69.7,63.3,29.82,SSW,193,0.0,5.0,80,0.00,,,0.00,Wunderground v.1.15,2013-05-09 02:50:00,
2013-05-08 22:00:00,69.7,62.9,29.82,South,190,1.0,1.0,79,0.00,,,0.00,Wunderground v.1.15,2013-05-09 03:00:00,
2013-05-08 22:10:00,69.7,62.9,29.83,South,190,0.0,5.0,79,0.00,,,0.00,Wunderground v.1.15,2013-05-09 03:10:00,
2013-05-08 22:20:00,69.6,63.2,29.83,South,190,0.0,5.0,80,0.00,,,0.00,Wunderground v.1.15,2013-05-09 03:20:00,
2013-05-08 22:30:00,69.7,62.9,29.83,South,190,0.0,5.0,79,0.00,,,0.00,Wunderground v.1.15,2013-05-09 03:30:00,
2013-05-08 22:40:00,69.7,62.9,29.83,South,190,0.0,5.0,79,0.00,,,0.00,Wunderground v.1.15,2013-05-09 03:40:00,
2013-05-08 22:50:00,69.5,62.7,29.83,South,190,0.0,5.0,79,0.00,,,0.00,Wunderground v.1.15,2013-05-09 03:50:00,
2013-05-08 23:00:00,69.1,62.7,29.83,South,190,0.0,5.0,80,0.00,,,0.00,Wunderground v.1.15,2013-05-09 04:00:00,
2013-05-08 23:10:00,68.6,62.5,29.83,South,190,0.0,5.0,81,0.00,,,0.00,Wunderground v.1.15,2013-05-09 04:10:00,
2013-05-08 23:20:00,68.5,62.4,29.82,South,190,0.0,5.0,81,0.00,,,0.00,Wunderground v.1.15,2013-05-09 04:20:00,
2013-05-08 23:30:00,68.3,62.6,29.82,South,190,0.0,5.0,82,0.00,,,0.00,Wunderground v.1.15,2013-05-09 04:30:00,
2013-05-08 23:40:00,68.5,62.4,29.83,South,190,1.0,1.0,81,0.00,,,0.00,Wunderground v.1.15,2013-05-09 04:40:00,
2013-05-08 23:50:00,68.4,62.3,29.83,South,190,0.0,5.0,81,0.00,,,0.00,Wunderground v.1.15,2013-05-09 04:50:00,